createdAt,value
2022-11-10T00:00:28.848Z,89.34
2022-11-10T00:01:28.799Z,89.42
2022-11-10T00:02:28.868Z,89.49
2022-11-10T00:03:28.779Z,89.69
2022-11-10T00:04:28.805Z,89.82
2022-11-10T00:05:28.739Z,89.99
2022-11-10T00:06:28.823Z,89.79
2022-11-10T00:07:28.709Z,89.58
2022-11-10T00:08:28.808Z,89.54
2022-11-10T00:09:28.709Z,89.41
2022-11-10T00:10:28.721Z,89.42
2022-11-10T00:11:28.656Z,89.54
2022-11-10T00:12:28.728Z,89.56
2022-11-10T00:13:28.638Z,89.65
2022-11-10T00:14:28.638Z,89.78
2022-11-10T00:15:28.628Z,89.83
2022-11-10T00:16:28.657Z,89.82
2022-11-10T00:17:28.582Z,89.74
2022-11-10T00:18:28.670Z,89.71
2022-11-10T00:19:28.551Z,89.67
2022-11-10T00:20:28.587Z,89.85
2022-11-10T00:21:28.566Z,89.76
2022-11-10T00:22:28.598Z,89.76
2022-11-10T00:23:28.505Z,89.88
2022-11-10T00:24:28.517Z,89.90
2022-11-10T00:25:28.467Z,89.73
2022-11-10T00:26:28.526Z,89.82
2022-11-10T00:27:28.487Z,89.70
2022-11-10T00:28:28.547Z,89.83
2022-11-10T00:29:28.407Z,89.62
2022-11-10T00:30:28.457Z,89.56
2022-11-10T00:31:28.444Z,89.55
2022-11-10T00:32:28.466Z,89.64
2022-11-10T00:33:28.377Z,89.66
2022-11-10T00:34:28.378Z,89.79
2022-11-10T00:35:28.345Z,89.83
2022-11-10T00:36:28.391Z,89.95
2022-11-10T00:37:28.306Z,90.07
2022-11-10T00:38:28.411Z,90.15
2022-11-10T00:39:28.312Z,90.05
2022-11-10T00:40:28.321Z,90.04
2022-11-10T00:41:28.249Z,90.14
2022-11-10T00:42:28.336Z,90.15
2022-11-10T00:43:28.584Z,90.05
2022-11-10T00:44:28.268Z,90.05
2022-11-10T00:45:28.220Z,90.20
2022-11-10T00:46:28.260Z,90.22
2022-11-10T00:47:28.174Z,90.17
2022-11-10T00:48:28.276Z,90.23
2022-11-10T00:49:28.148Z,90.25
2022-11-10T00:50:28.188Z,90.26
2022-11-10T00:51:28.155Z,90.14
2022-11-10T00:52:28.210Z,90.19
2022-11-10T00:53:28.097Z,90.22
2022-11-10T00:54:28.115Z,90.24
2022-11-10T00:55:28.067Z,90.14
2022-11-10T00:56:29.159Z,90.15
2022-11-10T00:57:28.065Z,90.10
2022-11-10T00:58:28.273Z,90.09
2022-11-10T00:59:28.084Z,90.13
2022-11-10T01:00:28.087Z,90.02
2022-11-10T01:01:28.022Z,90.01
2022-11-10T01:02:28.072Z,89.92
2022-11-10T01:03:27.996Z,89.96
2022-11-10T01:04:27.986Z,89.87
2022-11-10T01:05:27.926Z,89.73
2022-11-10T01:06:27.995Z,89.59
2022-11-10T01:07:27.906Z,89.41
2022-11-10T01:08:28.012Z,89.39
2022-11-10T01:09:27.896Z,89.35
2022-11-10T01:10:27.917Z,89.17
2022-11-10T01:11:27.855Z,89.13
2022-11-10T01:12:27.937Z,89.13
2022-11-10T01:13:27.820Z,89.12
2022-11-10T01:14:27.848Z,88.76
2022-11-10T01:15:28.251Z,88.70
2022-11-10T01:16:27.869Z,88.72
2022-11-10T01:17:27.767Z,88.65
2022-11-10T01:18:27.778Z,88.71
2022-11-10T01:19:27.747Z,88.91
2022-11-10T01:20:27.787Z,88.82
2022-11-10T01:21:27.733Z,88.61
2022-11-10T01:22:27.804Z,88.57
2022-11-10T01:23:27.686Z,88.63
2022-11-10T01:24:27.716Z,88.64
2022-11-10T01:25:27.661Z,88.61
2022-11-10T01:26:27.734Z,88.38
2022-11-10T01:27:27.656Z,88.35
2022-11-10T01:28:27.645Z,88.27
2022-11-10T01:29:27.606Z,88.51
2022-11-10T01:30:27.656Z,88.40
2022-11-10T01:31:27.592Z,88.55
2022-11-10T01:32:27.676Z,88.57
2022-11-10T01:33:27.587Z,88.61
2022-11-10T01:34:27.586Z,88.65
2022-11-10T01:35:27.526Z,88.56
2022-11-10T01:36:27.595Z,88.61
2022-11-10T01:37:27.508Z,88.71
2022-11-10T01:38:27.515Z,88.79
2022-11-10T01:39:27.494Z,88.90
2022-11-10T01:40:27.579Z,88.87
2022-11-10T01:41:27.445Z,88.89
2022-11-10T01:42:27.544Z,88.85
2022-11-10T01:43:27.415Z,88.90
2022-11-10T01:44:27.454Z,89.05
2022-11-10T01:45:27.424Z,89.11
2022-11-10T01:46:27.473Z,89.02
2022-11-10T01:47:27.364Z,89.09
2022-11-10T01:48:27.381Z,89.17
2022-11-10T01:49:27.346Z,89.16
2022-11-10T01:50:27.395Z,89.18
2022-11-10T01:51:27.335Z,89.14
2022-11-10T01:52:27.414Z,89.14
2022-11-10T01:53:27.285Z,89.11
2022-11-10T01:54:27.323Z,88.86
2022-11-10T01:55:27.267Z,88.72
2022-11-10T01:56:27.335Z,88.63
2022-11-10T01:57:27.263Z,88.69
2022-11-10T01:58:27.253Z,88.61
2022-11-10T01:59:27.202Z,88.63
2022-11-10T02:00:27.294Z,88.55
2022-11-10T02:01:27.184Z,88.44
2022-11-10T02:02:27.274Z,88.44
2022-11-10T02:03:27.173Z,88.28
2022-11-10T02:04:27.189Z,88.03
2022-11-10T02:05:27.132Z,87.99
2022-11-10T02:06:27.204Z,87.88
2022-11-10T02:07:27.294Z,87.89
2022-11-10T02:08:27.115Z,88.00
2022-11-10T02:09:27.247Z,88.09
2022-11-10T02:10:27.130Z,88.22
2022-11-10T02:11:27.044Z,88.13
2022-11-10T02:12:27.142Z,88.14
2022-11-10T02:13:27.016Z,88.12
2022-11-10T02:14:27.055Z,88.18
2022-11-10T02:15:27.017Z,88.23
2022-11-10T02:16:27.993Z,88.14
2022-11-10T02:17:26.962Z,88.20
2022-11-10T02:18:26.984Z,88.16
2022-11-10T02:19:26.946Z,88.12
2022-11-10T02:20:27.001Z,88.12
2022-11-10T02:21:26.929Z,88.01
2022-11-10T02:22:27.011Z,87.94
2022-11-10T02:23:26.884Z,88.02
2022-11-10T02:24:26.923Z,88.12
2022-11-10T02:25:26.864Z,88.10
2022-11-10T02:26:26.942Z,88.12
2022-11-10T02:27:26.935Z,88.04
2022-11-10T02:28:26.877Z,88.14
2022-11-10T02:29:26.802Z,88.18
2022-11-10T02:30:27.927Z,88.29
2022-11-10T02:31:26.791Z,88.29
2022-11-10T02:32:26.881Z,88.36
2022-11-10T02:33:26.781Z,88.35
2022-11-10T02:34:26.791Z,88.36
2022-11-10T02:35:26.724Z,88.41
2022-11-10T02:36:26.810Z,88.39
2022-11-10T02:37:26.702Z,88.59
2022-11-10T02:38:26.719Z,88.78
2022-11-10T02:39:26.696Z,88.80
2022-11-10T02:40:27.759Z,88.97
2022-11-10T02:41:26.640Z,88.90
2022-11-10T02:42:26.644Z,88.86
2022-11-10T02:43:26.614Z,88.83
2022-11-10T02:44:26.658Z,89.24
2022-11-10T02:45:26.618Z,89.42
2022-11-10T02:46:26.676Z,89.05
2022-11-10T02:47:26.560Z,88.63
2022-11-10T02:48:26.588Z,89.10
2022-11-10T02:49:26.531Z,89.75
2022-11-10T02:50:26.601Z,89.61
2022-11-10T02:51:26.528Z,89.67
2022-11-10T02:52:26.520Z,89.75
2022-11-10T02:53:26.488Z,89.42
2022-11-10T02:54:27.549Z,89.24
2022-11-10T02:55:26.457Z,89.18
2022-11-10T02:56:26.541Z,89.15
2022-11-10T02:57:26.452Z,89.43
2022-11-10T02:58:26.452Z,89.40
2022-11-10T02:59:26.400Z,89.36
2022-11-10T03:00:26.470Z,89.34
2022-11-10T03:01:26.462Z,89.52
2022-11-10T03:02:31.978Z,89.82
2022-11-10T03:03:27.382Z,89.88
2022-11-10T03:04:26.396Z,89.68
2022-11-10T03:05:26.319Z,89.39
2022-11-10T03:06:26.409Z,89.26
2022-11-10T03:07:26.298Z,89.16
2022-11-10T03:08:26.327Z,88.99
2022-11-10T03:09:26.287Z,89.18
2022-11-10T03:10:26.350Z,89.50
2022-11-10T03:11:31.859Z,89.71
2022-11-10T03:12:27.226Z,89.77
2022-11-10T03:13:35.630Z,89.60
2022-11-10T03:14:27.216Z,89.75
2022-11-10T03:15:26.268Z,89.57
2022-11-10T03:16:26.168Z,89.59
2022-11-10T03:17:26.180Z,89.54
2022-11-10T03:18:26.147Z,89.52
2022-11-10T03:19:26.198Z,89.45
2022-11-10T03:20:31.419Z,89.53
2022-11-10T03:21:26.209Z,89.67
2022-11-10T03:22:26.102Z,89.65
2022-11-10T03:23:26.126Z,89.72
2022-11-10T03:24:26.071Z,89.76
2022-11-10T03:25:26.137Z,89.86
2022-11-10T03:26:26.059Z,89.86
2022-11-10T03:27:26.051Z,89.80
2022-11-10T03:28:26.008Z,89.59
2022-11-10T03:29:26.066Z,89.50
2022-11-10T03:30:25.990Z,89.61
2022-11-10T03:31:26.077Z,89.70
2022-11-10T03:32:25.981Z,89.85
2022-11-10T03:33:26.152Z,89.84
2022-11-10T03:34:29.421Z,89.99
2022-11-10T03:35:26.917Z,90.11
2022-11-10T03:36:26.103Z,89.83
2022-11-10T03:37:25.890Z,89.68
2022-11-10T03:38:25.997Z,89.68
2022-11-10T03:39:25.867Z,89.73
2022-11-10T03:40:25.937Z,89.73
2022-11-10T03:41:25.832Z,89.77
2022-11-10T03:42:25.857Z,89.76
2022-11-10T03:43:25.818Z,89.71
2022-11-10T03:44:25.929Z,89.73
2022-11-10T03:45:25.788Z,89.71
2022-11-10T03:46:25.888Z,89.63
2022-11-10T03:47:25.763Z,89.57
2022-11-10T03:48:25.796Z,90.02
2022-11-10T03:49:25.736Z,90.23
2022-11-10T03:50:26.798Z,90.16
2022-11-10T03:51:25.710Z,90.08
2022-11-10T03:52:25.746Z,90.25
2022-11-10T03:53:25.730Z,90.20
2022-11-10T03:54:25.737Z,89.91
2022-11-10T03:55:25.657Z,89.54
2022-11-10T03:56:25.706Z,89.73
2022-11-10T03:57:25.626Z,89.80
2022-11-10T03:58:25.666Z,89.70
2022-11-10T03:59:25.596Z,89.85
2022-11-10T04:00:25.679Z,89.98
2022-11-10T04:01:25.607Z,89.93
2022-11-10T04:02:25.645Z,89.64
2022-11-10T04:03:25.789Z,89.43
2022-11-10T04:04:25.607Z,89.33
2022-11-10T04:05:25.515Z,89.20
2022-11-10T04:06:25.627Z,89.14
2022-11-10T04:07:25.493Z,89.39
2022-11-10T04:08:25.588Z,89.54
2022-11-10T04:09:25.467Z,89.54
2022-11-10T04:10:26.575Z,89.29
2022-11-10T04:11:25.445Z,89.19
2022-11-10T04:12:25.456Z,89.25
2022-11-10T04:13:25.408Z,89.13
2022-11-10T04:14:25.533Z,89.25
2022-11-10T04:15:25.384Z,89.29
2022-11-10T04:16:25.487Z,89.29
2022-11-10T04:17:25.357Z,89.20
2022-11-10T04:18:25.399Z,89.03
2022-11-10T04:19:25.338Z,89.03
2022-11-10T04:20:25.364Z,89.23
2022-11-10T04:21:25.304Z,89.22
2022-11-10T04:22:25.325Z,89.00
2022-11-10T04:23:25.581Z,89.02
2022-11-10T04:24:25.335Z,88.89
2022-11-10T04:25:25.253Z,88.79
2022-11-10T04:26:25.313Z,88.78
2022-11-10T04:27:25.237Z,88.86
2022-11-10T04:28:25.268Z,88.89
2022-11-10T04:29:25.201Z,88.86
2022-11-10T04:30:25.284Z,88.84
2022-11-10T04:31:25.176Z,88.86
2022-11-10T04:32:25.254Z,88.73
2022-11-10T04:33:25.256Z,88.60
2022-11-10T04:34:25.204Z,88.53
2022-11-10T04:35:25.114Z,88.37
2022-11-10T04:36:25.119Z,88.55
2022-11-10T04:37:25.084Z,88.67
2022-11-10T04:38:25.184Z,88.72
2022-11-10T04:39:25.063Z,88.80
2022-11-10T04:40:25.146Z,88.95
2022-11-10T04:41:25.045Z,89.16
2022-11-10T04:42:25.063Z,89.21
2022-11-10T04:43:25.320Z,89.21
2022-11-10T04:44:26.053Z,89.29
2022-11-10T04:45:24.982Z,89.29
2022-11-10T04:46:24.984Z,89.22
2022-11-10T04:47:24.952Z,89.21
2022-11-10T04:48:25.002Z,89.26
2022-11-10T04:49:24.924Z,89.35
2022-11-10T04:50:25.235Z,89.41
2022-11-10T04:51:24.913Z,89.30
2022-11-10T04:52:25.952Z,89.27
2022-11-10T04:53:25.125Z,89.32
2022-11-10T04:54:24.945Z,89.35
2022-11-10T04:55:24.845Z,89.40
2022-11-10T04:56:25.932Z,89.52
2022-11-10T04:57:24.822Z,89.65
2022-11-10T04:58:24.871Z,89.65
2022-11-10T04:59:24.794Z,89.71
2022-11-10T05:00:24.885Z,89.72
2022-11-10T05:01:24.846Z,89.80
2022-11-10T05:02:24.869Z,89.81
2022-11-10T05:03:25.063Z,89.85
2022-11-10T05:04:24.812Z,89.92
2022-11-10T05:05:24.715Z,89.96
2022-11-10T05:06:24.721Z,89.91
2022-11-10T05:07:24.683Z,90.03
2022-11-10T05:08:24.804Z,89.81
2022-11-10T05:09:24.660Z,89.55
2022-11-10T05:10:24.751Z,89.39
2022-11-10T05:11:24.631Z,89.47
2022-11-10T05:12:24.662Z,89.63
2022-11-10T05:13:24.802Z,89.57
2022-11-10T05:14:24.731Z,89.35
2022-11-10T05:15:24.581Z,89.50
2022-11-10T05:16:24.776Z,89.59
2022-11-10T05:17:24.563Z,89.64
2022-11-10T05:18:24.611Z,89.75
2022-11-10T05:19:24.532Z,89.46
2022-11-10T05:20:24.575Z,89.31
2022-11-10T05:21:24.500Z,89.45
2022-11-10T05:23:34.165Z,89.72
2022-11-10T05:24:33.946Z,89.71
2022-11-10T05:25:34.037Z,89.78
2022-11-10T05:26:33.918Z,89.77
2022-11-10T05:27:34.034Z,89.50
2022-11-10T05:28:33.896Z,89.34
2022-11-10T05:29:33.957Z,89.22
2022-11-10T05:30:33.865Z,89.14
2022-11-10T05:31:34.048Z,89.33
2022-11-10T05:32:33.836Z,89.51
2022-11-10T05:33:34.034Z,89.64
2022-11-10T05:34:33.818Z,89.67
2022-11-10T05:35:33.863Z,89.66
2022-11-10T05:36:33.794Z,89.64
2022-11-10T05:37:33.956Z,89.49
2022-11-10T05:38:35.664Z,89.51
2022-11-10T05:39:34.749Z,89.34
2022-11-10T05:40:33.804Z,89.17
2022-11-10T05:41:33.723Z,89.16
2022-11-10T05:42:33.840Z,89.29
2022-11-10T05:43:33.725Z,89.17
2022-11-10T05:44:33.775Z,88.94
2022-11-10T05:45:33.667Z,88.99
2022-11-10T05:46:35.906Z,89.18
2022-11-10T05:47:33.638Z,89.30
2022-11-10T05:48:33.744Z,89.33
2022-11-10T05:49:33.644Z,89.25
2022-11-10T05:50:33.675Z,89.20
2022-11-10T05:51:33.584Z,89.26
2022-11-10T05:52:34.735Z,89.43
2022-11-10T05:53:33.556Z,89.50
2022-11-10T05:54:33.651Z,89.37
2022-11-10T05:55:33.565Z,89.15
2022-11-10T05:56:33.685Z,89.21
2022-11-10T05:57:33.512Z,89.21
2022-11-10T05:58:33.624Z,89.27
2022-11-10T05:59:33.474Z,89.55
2022-11-10T06:00:33.517Z,89.76
2022-11-10T06:01:33.473Z,89.78
2022-11-10T06:02:33.593Z,89.77
2022-11-10T06:03:33.434Z,89.86
2022-11-10T06:04:34.554Z,89.90
2022-11-10T06:05:33.408Z,89.79
2022-11-10T06:06:33.520Z,89.97
2022-11-10T06:07:33.396Z,90.05
2022-11-10T06:08:34.421Z,90.02
2022-11-10T06:09:33.353Z,90.02
2022-11-10T06:10:33.441Z,90.11
2022-11-10T06:11:33.322Z,89.99
2022-11-10T06:12:33.476Z,89.95
2022-11-10T06:13:33.312Z,90.04
2022-11-10T06:14:33.412Z,89.96
2022-11-10T06:15:33.265Z,90.02
2022-11-10T06:16:33.343Z,90.23
2022-11-10T06:17:33.252Z,90.16
2022-11-10T06:18:33.372Z,90.13
2022-11-10T06:19:33.248Z,89.90
2022-11-10T06:20:33.311Z,89.58
2022-11-10T06:21:33.183Z,89.62
2022-11-10T06:22:35.342Z,89.77
2022-11-10T06:23:33.165Z,89.84
2022-11-10T06:24:33.282Z,89.69
2022-11-10T06:25:33.162Z,89.49
2022-11-10T06:26:33.213Z,89.36
2022-11-10T06:27:33.113Z,89.32
2022-11-10T06:28:33.253Z,89.33
2022-11-10T06:29:33.083Z,89.07
2022-11-10T06:30:33.184Z,88.96
2022-11-10T06:31:33.075Z,89.00
2022-11-10T06:32:33.221Z,88.93
2022-11-10T06:33:33.042Z,88.91
2022-11-10T06:34:33.071Z,89.14
2022-11-10T06:35:33.001Z,89.33
2022-11-10T06:36:33.071Z,89.28
2022-11-10T06:37:33.003Z,89.36
2022-11-10T06:38:33.130Z,89.34
2022-11-10T06:39:32.952Z,89.65
2022-11-10T06:40:33.067Z,89.84
2022-11-10T06:41:32.921Z,89.96
2022-11-10T06:42:33.099Z,89.97
2022-11-10T06:43:32.909Z,89.94
2022-11-10T06:44:35.030Z,90.09
2022-11-10T06:45:32.880Z,90.10
2022-11-10T06:46:34.971Z,89.97
2022-11-10T06:47:33.850Z,90.08
2022-11-10T06:48:33.001Z,90.26
2022-11-10T06:49:32.850Z,90.40
2022-11-10T06:50:33.969Z,90.32
2022-11-10T06:51:32.780Z,89.98
2022-11-10T06:52:32.870Z,89.79
2022-11-10T06:53:33.393Z,89.79
2022-11-10T06:54:32.801Z,89.99
2022-11-10T06:55:32.750Z,90.02
2022-11-10T06:56:34.939Z,89.89
2022-11-10T06:57:32.712Z,89.55
2022-11-10T06:58:32.879Z,89.30
2022-11-10T06:59:32.680Z,89.71
2022-11-10T07:00:32.821Z,89.98
2022-11-10T07:01:32.736Z,89.76
2022-11-10T07:02:34.749Z,89.78
2022-11-10T07:03:32.632Z,89.96
2022-11-10T07:04:32.700Z,89.94
2022-11-10T07:05:32.598Z,89.76
2022-11-10T07:06:32.787Z,90.06
2022-11-10T07:07:32.599Z,89.98
2022-11-10T07:08:53.737Z,89.63
2022-11-10T07:09:32.539Z,89.57
2022-11-10T07:10:32.688Z,89.79
2022-11-10T07:11:32.519Z,89.89
2022-11-10T07:12:32.628Z,89.59
2022-11-10T07:13:32.534Z,89.65
2022-11-10T07:14:32.560Z,89.68
2022-11-10T07:15:32.459Z,89.50
2022-11-10T07:16:32.598Z,89.61
2022-11-10T07:17:32.446Z,89.66
2022-11-10T07:18:32.637Z,89.60
2022-11-10T07:19:32.558Z,89.32
2022-11-10T07:20:32.476Z,89.13
2022-11-10T07:21:32.378Z,89.15
2022-11-10T07:22:32.500Z,89.21
2022-11-10T07:23:32.364Z,89.18
2022-11-10T07:24:34.537Z,88.88
2022-11-10T07:25:32.347Z,88.75
2022-11-10T07:26:32.399Z,88.89
2022-11-10T07:27:32.298Z,88.81
2022-11-10T07:28:32.430Z,88.81
2022-11-10T07:29:32.281Z,88.61
2022-11-10T07:30:32.340Z,88.65
2022-11-10T07:31:32.268Z,88.75
2022-11-10T07:32:32.376Z,88.61
2022-11-10T07:33:32.218Z,88.35
2022-11-10T07:34:32.249Z,88.49
2022-11-10T07:35:32.188Z,88.22
2022-11-10T07:36:32.347Z,87.80
2022-11-10T07:37:32.188Z,87.78
2022-11-10T07:38:32.288Z,87.75
2022-11-10T07:39:32.156Z,87.83
2022-11-10T07:40:32.220Z,88.05
2022-11-10T07:41:32.118Z,88.05
2022-11-10T07:42:32.247Z,87.98
2022-11-10T07:43:32.109Z,87.98
2022-11-10T07:44:32.206Z,87.79
2022-11-10T07:45:32.071Z,87.65
2022-11-10T07:46:32.240Z,87.67
2022-11-10T07:47:32.365Z,87.72
2022-11-10T07:48:53.110Z,87.82
2022-11-10T07:49:32.007Z,87.85
2022-11-10T07:50:32.177Z,87.81
2022-11-10T07:51:32.527Z,87.94
2022-11-10T07:52:32.167Z,87.78
2022-11-10T07:53:32.392Z,87.86
2022-11-10T07:54:32.063Z,87.55
2022-11-10T07:55:31.982Z,87.40
2022-11-10T07:56:32.049Z,86.86
2022-11-10T07:57:31.909Z,86.95
2022-11-10T07:58:31.981Z,87.05
2022-11-10T07:59:31.888Z,86.89
2022-11-10T08:00:33.105Z,86.59
2022-11-10T08:01:31.882Z,86.21
2022-11-10T08:02:32.048Z,86.47
2022-11-10T08:03:31.834Z,86.85
2022-11-10T08:04:31.879Z,86.84
2022-11-10T08:05:31.818Z,87.07
2022-11-10T08:06:35.935Z,87.14
2022-11-10T08:07:31.934Z,87.26
2022-11-10T08:08:31.971Z,87.39
2022-11-10T08:09:31.787Z,87.18
2022-11-10T08:10:31.885Z,86.95
2022-11-10T08:11:31.716Z,86.49
2022-11-10T08:12:33.757Z,86.63
2022-11-10T08:13:31.705Z,86.80
2022-11-10T08:14:31.756Z,86.51
2022-11-10T08:15:31.678Z,86.80
2022-11-10T08:16:31.858Z,87.03
2022-11-10T08:17:31.646Z,86.92
2022-11-10T08:18:35.265Z,86.94
2022-11-10T08:19:31.627Z,86.89
2022-11-10T08:20:31.775Z,86.87
2022-11-10T08:21:31.604Z,86.74
2022-11-10T08:22:31.702Z,86.22
2022-11-10T08:23:31.584Z,85.96
2022-11-10T08:24:31.688Z,85.49
2022-11-10T08:25:34.865Z,85.77
2022-11-10T08:26:31.526Z,86.34
2022-11-10T08:27:31.756Z,86.08
2022-11-10T08:28:31.498Z,85.96
2022-11-10T08:29:31.576Z,86.29
2022-11-10T08:30:31.736Z,86.30
2022-11-10T08:31:31.615Z,85.91
2022-11-10T08:32:31.455Z,85.57
2022-11-10T08:33:31.548Z,85.53
2022-11-10T08:34:31.426Z,85.41
2022-11-10T08:35:31.485Z,85.17
2022-11-10T08:36:31.414Z,84.91
2022-11-10T08:37:31.514Z,85.14
2022-11-10T08:38:31.376Z,85.42
2022-11-10T08:39:39.155Z,85.44
2022-11-10T08:40:32.327Z,85.59
2022-11-10T08:41:32.554Z,84.92
2022-11-10T08:42:31.334Z,84.93
2022-11-10T08:43:31.421Z,84.78
2022-11-10T08:44:31.284Z,84.62
2022-11-10T08:45:31.367Z,84.48
2022-11-10T08:46:31.254Z,84.62
2022-11-10T08:47:32.317Z,85.26
2022-11-10T08:48:31.265Z,85.35
2022-11-10T08:49:31.264Z,85.71
2022-11-10T08:50:31.206Z,85.67
2022-11-10T08:51:34.961Z,85.54
2022-11-10T08:52:32.184Z,85.57
2022-11-10T08:53:33.282Z,85.87
2022-11-10T08:54:34.192Z,85.94
2022-11-10T08:55:31.911Z,85.59
2022-11-10T08:56:32.124Z,86.22
2022-11-10T08:57:31.667Z,85.63
2022-11-10T08:58:33.412Z,85.31
2022-11-10T08:59:32.029Z,85.61
2022-11-10T09:00:32.273Z,85.32
2022-11-10T09:01:31.706Z,85.67
2022-11-10T09:02:33.805Z,85.61
2022-11-10T09:03:33.008Z,85.46
2022-11-10T09:04:32.707Z,85.99
2022-11-10T09:05:32.077Z,85.87
2022-11-10T09:06:31.165Z,85.61
2022-11-10T09:07:30.979Z,85.29
2022-11-10T09:08:33.194Z,85.50
2022-11-10T09:09:30.943Z,85.61
2022-11-10T09:10:31.143Z,85.24
2022-11-10T09:11:30.964Z,85.27
2022-11-10T09:12:31.035Z,85.25
2022-11-10T09:13:31.445Z,85.52
2022-11-10T09:14:31.015Z,85.57
2022-11-10T09:15:31.015Z,85.69
2022-11-10T09:16:31.059Z,85.89
2022-11-10T09:17:30.843Z,86.05
2022-11-10T09:18:30.928Z,86.17
2022-11-10T09:19:30.967Z,86.20
2022-11-10T09:20:30.915Z,86.28
2022-11-10T09:21:30.774Z,86.14
2022-11-10T09:22:30.853Z,85.33
2022-11-10T09:23:30.743Z,85.28
2022-11-10T09:24:31.622Z,85.82
2022-11-10T09:25:30.726Z,86.26
2022-11-10T09:26:30.825Z,85.55
2022-11-10T09:27:30.706Z,85.50
2022-11-10T09:28:30.755Z,86.11
2022-11-10T09:29:30.672Z,86.31
2022-11-10T09:30:30.744Z,85.01
2022-11-10T09:31:30.655Z,84.76
2022-11-10T09:32:30.735Z,85.13
2022-11-10T09:33:30.615Z,85.45
2022-11-10T09:34:30.764Z,84.94
2022-11-10T09:35:30.585Z,85.23
2022-11-10T09:36:30.646Z,85.37
2022-11-10T09:37:30.553Z,85.66
2022-11-10T09:38:30.637Z,85.48
2022-11-10T09:39:30.534Z,85.31
2022-11-10T09:40:30.676Z,85.14
2022-11-10T09:41:30.508Z,85.05
2022-11-10T09:42:30.661Z,85.36
2022-11-10T09:43:30.480Z,85.06
2022-11-10T09:44:30.642Z,84.79
2022-11-10T09:45:32.937Z,84.71
2022-11-10T09:46:31.434Z,84.53
2022-11-10T09:47:58.491Z,84.52
2022-11-10T09:48:31.424Z,84.89
2022-11-10T09:49:30.472Z,84.64
2022-11-10T09:50:30.372Z,84.57
2022-11-10T09:51:30.383Z,84.44
2022-11-10T09:52:30.365Z,84.78
2022-11-10T09:53:31.151Z,84.92
2022-11-10T09:54:30.345Z,84.89
2022-11-10T09:55:30.421Z,85.03
2022-11-10T09:56:30.304Z,85.15
2022-11-10T09:57:30.325Z,84.69
2022-11-10T09:58:30.284Z,84.40
2022-11-10T09:59:30.340Z,84.35
2022-11-10T10:00:30.298Z,85.07
2022-11-10T10:01:30.401Z,85.19
2022-11-10T10:02:30.224Z,85.48
2022-11-10T10:03:30.287Z,84.39
2022-11-10T10:04:30.188Z,84.42
2022-11-10T10:05:30.283Z,84.21
2022-11-10T10:06:43.699Z,84.53
2022-11-10T10:07:31.244Z,84.82
2022-11-10T10:08:30.202Z,85.00
2022-11-10T10:09:30.132Z,85.26
2022-11-10T10:10:30.302Z,84.85
2022-11-10T10:11:30.110Z,84.72
2022-11-10T10:12:30.172Z,84.70
2022-11-10T10:13:30.072Z,84.84
2022-11-10T10:14:52.153Z,84.87
2022-11-10T10:15:30.265Z,85.38
2022-11-10T10:16:31.173Z,85.07
2022-11-10T10:17:30.028Z,84.99
2022-11-10T10:18:30.127Z,85.23
2022-11-10T10:19:29.991Z,84.94
2022-11-10T10:20:30.082Z,84.94
2022-11-10T10:21:29.974Z,85.23
2022-11-10T10:22:29.994Z,85.22
2022-11-10T10:23:53.942Z,84.67
2022-11-10T10:24:30.962Z,84.96
2022-11-10T10:25:30.046Z,85.08
2022-11-10T10:26:29.917Z,85.07
2022-11-10T10:27:29.936Z,85.04
2022-11-10T10:28:29.889Z,84.70
2022-11-10T10:29:34.529Z,84.74
2022-11-10T10:30:30.897Z,84.77
2022-11-10T10:31:29.857Z,84.72
2022-11-10T10:32:29.824Z,85.21
2022-11-10T10:33:29.864Z,85.16
2022-11-10T10:34:29.784Z,85.35
2022-11-10T10:35:30.494Z,84.72
2022-11-10T10:36:29.895Z,84.98
2022-11-10T10:37:29.816Z,85.28
2022-11-10T10:38:29.742Z,84.55
2022-11-10T10:39:31.890Z,84.79
2022-11-10T10:40:29.712Z,84.60
2022-11-10T10:41:29.834Z,84.39
2022-11-10T10:42:29.722Z,84.12
2022-11-10T10:43:29.753Z,84.09
2022-11-10T10:44:29.664Z,83.76
2022-11-10T10:45:29.862Z,83.63
2022-11-10T10:46:34.469Z,83.97
2022-11-10T10:47:30.643Z,83.89
2022-11-10T10:48:29.691Z,83.77
2022-11-10T10:49:30.719Z,83.82
2022-11-10T10:50:29.732Z,84.04
2022-11-10T10:51:30.133Z,84.36
2022-11-10T10:52:29.858Z,84.15
2022-11-10T10:53:29.572Z,84.33
2022-11-10T10:54:29.703Z,84.28
2022-11-10T10:55:29.512Z,84.21
2022-11-10T10:56:31.643Z,83.95
2022-11-10T10:57:29.502Z,83.83
2022-11-10T10:58:29.541Z,83.83
2022-11-10T10:59:29.535Z,83.76
2022-11-10T11:00:29.555Z,83.97
2022-11-10T11:01:29.466Z,84.04
2022-11-10T11:02:29.468Z,83.79
2022-11-10T11:03:29.403Z,83.44
2022-11-10T11:04:29.558Z,83.40
2022-11-10T11:05:29.423Z,83.45
2022-11-10T11:06:29.677Z,83.47
2022-11-10T11:07:29.353Z,83.74
2022-11-10T11:08:29.421Z,83.65
2022-11-10T11:09:29.330Z,83.46
2022-11-10T11:10:29.421Z,83.11
2022-11-10T11:11:29.324Z,83.24
2022-11-10T11:12:29.622Z,83.57
2022-11-10T11:13:29.280Z,83.60
2022-11-10T11:14:29.343Z,83.56
2022-11-10T11:15:29.259Z,83.39
2022-11-10T11:16:29.280Z,83.32
2022-11-10T11:17:29.325Z,83.25
2022-11-10T11:18:29.279Z,83.21
2022-11-10T11:19:29.340Z,83.34
2022-11-10T11:20:29.292Z,83.47
2022-11-10T11:21:29.175Z,83.50
2022-11-10T11:22:29.203Z,83.06
2022-11-10T11:23:29.164Z,83.11
2022-11-10T11:24:29.213Z,83.11
2022-11-10T11:25:29.113Z,83.18
2022-11-10T11:26:29.125Z,83.00
2022-11-10T11:27:29.083Z,83.15
2022-11-10T11:28:29.159Z,83.11
2022-11-10T11:29:29.072Z,83.09
2022-11-10T11:30:29.153Z,83.34
2022-11-10T11:31:29.031Z,83.70
2022-11-10T11:32:29.065Z,83.87
2022-11-10T11:33:29.002Z,83.66
2022-11-10T11:34:29.096Z,83.12
2022-11-10T11:35:28.992Z,83.26
2022-11-10T11:36:28.994Z,82.92
2022-11-10T11:37:28.954Z,83.07
2022-11-10T11:38:51.032Z,83.38
2022-11-10T11:39:28.933Z,83.38
2022-11-10T11:40:29.022Z,82.93
2022-11-10T11:41:28.912Z,83.12
2022-11-10T11:42:28.935Z,83.01
2022-11-10T11:43:28.861Z,83.08
2022-11-10T11:44:28.949Z,83.13
2022-11-10T11:45:28.842Z,83.03
2022-11-10T11:46:28.863Z,83.26
2022-11-10T11:47:28.834Z,83.58
2022-11-10T11:48:29.902Z,83.49
2022-11-10T11:49:29.645Z,83.54
2022-11-10T11:50:28.900Z,83.47
2022-11-10T11:51:28.761Z,83.63
2022-11-10T11:52:28.813Z,83.76
2022-11-10T11:53:28.757Z,83.82
2022-11-10T11:54:28.827Z,83.88
2022-11-10T11:55:28.713Z,83.94
2022-11-10T11:56:28.746Z,83.99
2022-11-10T11:57:28.702Z,84.02
2022-11-10T11:58:28.752Z,84.13
2022-11-10T11:59:28.698Z,84.12
2022-11-10T12:00:29.681Z,84.33
2022-11-10T12:01:28.628Z,84.55
2022-11-10T12:02:28.737Z,84.50
2022-11-10T12:03:28.620Z,84.58
2022-11-10T12:04:28.718Z,84.84
2022-11-10T12:05:28.602Z,84.90
2022-11-10T12:06:28.600Z,84.90
2022-11-10T12:07:28.543Z,84.83
2022-11-10T12:08:28.618Z,84.69
2022-11-10T12:09:28.521Z,84.73
2022-11-10T12:10:28.632Z,84.85
2022-11-10T12:11:28.524Z,85.07
2022-11-10T12:12:28.541Z,85.31
2022-11-10T12:13:28.463Z,85.08
2022-11-10T12:14:28.611Z,85.05
2022-11-10T12:15:28.434Z,84.99
2022-11-10T12:16:28.462Z,85.04
2022-11-10T12:17:28.652Z,84.87
2022-11-10T12:18:28.479Z,84.93
2022-11-10T12:19:28.823Z,84.62
2022-11-10T12:20:28.785Z,84.55
2022-11-10T12:21:28.547Z,84.60
2022-11-10T12:22:28.411Z,84.31
2022-11-10T12:23:28.383Z,84.26
2022-11-10T12:24:28.421Z,84.24
2022-11-10T12:25:28.310Z,84.61
2022-11-10T12:26:28.338Z,84.74
2022-11-10T12:27:28.298Z,84.45
2022-11-10T12:28:28.349Z,84.55
2022-11-10T12:29:28.288Z,84.67
2022-11-10T12:30:28.281Z,84.77
2022-11-10T12:31:28.487Z,84.77
2022-11-10T12:32:29.325Z,84.89
2022-11-10T12:33:28.211Z,84.98
2022-11-10T12:34:28.302Z,84.96
2022-11-10T12:35:28.202Z,84.83
2022-11-10T12:36:49.213Z,85.15
2022-11-10T12:37:28.271Z,85.02
2022-11-10T12:38:28.222Z,85.03
2022-11-10T12:39:28.120Z,84.96
2022-11-10T12:40:28.133Z,85.11
2022-11-10T12:41:28.102Z,85.09
2022-11-10T12:42:28.144Z,85.16
2022-11-10T12:43:28.063Z,85.31
2022-11-10T12:44:30.162Z,85.05
2022-11-10T12:45:28.042Z,85.18
2022-11-10T12:46:28.081Z,85.19
2022-11-10T12:47:28.038Z,85.09
2022-11-10T12:48:28.093Z,85.14
2022-11-10T12:49:27.993Z,85.13
2022-11-10T12:50:28.001Z,85.31
2022-11-10T12:51:27.966Z,85.31
2022-11-10T12:52:28.010Z,85.23
2022-11-10T12:53:27.954Z,85.15